Time;durP1;ratioP1;P1;durP2;ratioP2;P2;SDS_P1;SDS_P2;PMS_P1;PMS_P2;Temp;Humidity;BMP_temperature;BMP_pressure;BME280_temperature;BME280_humidity;BME280_pressure;Samples;Min_cycle;Max_cycle;Signal;HPM_P1;HPM_P2
2023/04/22 00:01:30;;;;;;;0.20;0.20;;;;;;;14.51;79.34;99793.59;4995722;28;20090;-65
2023/04/22 00:03:56;;;;;;;0.20;0.20;;;;;;;14.74;78.64;99793.19;4995438;28;20030;-65
2023/04/22 00:06:24;;;;;;;0.20;0.20;;;;;;;14.70;78.79;99804.41;4995392;28;20370;-65
2023/04/22 00:08:49;;;;;;;0.20;0.20;;;;;;;14.62;78.33;99797.19;4995357;28;20449;-65
2023/04/22 00:11:15;;;;;;;0.20;0.20;;;;;;;14.45;79.46;99792.34;4995336;28;20057;-65
2023/04/22 00:13:44;;;;;;;0.30;0.30;;;;;;;14.62;79.30;99797.97;4994941;28;20049;-65
2023/04/22 00:16:12;;;;;;;0.20;0.20;;;;;;;14.42;79.73;99789.13;4994861;28;20117;-65
2023/04/22 00:18:40;;;;;;;0.20;0.20;;;;;;;14.37;80.29;99783.94;4995203;28;20057;-65
2023/04/22 00:21:08;;;;;;;0.20;0.20;;;;;;;14.44;79.69;99774.75;4994835;28;20080;-65
2023/04/22 00:23:34;;;;;;;0.20;0.20;;;;;;;14.38;80.12;99784.72;4996368;28;20069;-65
2023/04/22 00:26:05;;;;;;;0.20;0.20;;;;;;;14.35;80.40;99782.75;4994737;28;20436;-65
2023/04/22 00:28:33;;;;;;;0.20;0.20;;;;;;;14.39;80.66;99794.75;4995323;28;20034;-65
2023/04/22 00:30:59;;;;;;;0.20;0.20;;;;;;;14.30;80.09;99791.53;4994344;28;20085;-64
2023/04/22 00:33:26;;;;;;;0.20;0.20;;;;;;;14.40;79.33;99780.34;4994382;28;20441;-64
2023/04/22 00:35:53;;;;;;;0.20;0.20;;;;;;;14.52;78.75;99792.38;4994862;28;20089;-65
2023/04/22 00:38:19;;;;;;;0.20;0.20;;;;;;;14.35;79.56;99793.94;4994154;28;20026;-64
2023/04/22 00:40:47;;;;;;;0.20;0.20;;;;;;;14.18;80.67;99789.91;4994793;28;20027;-65
2023/04/22 00:43:15;;;;;;;0.20;0.20;;;;;;;14.24;80.70;99805.13;4994419;28;20030;-65
2023/04/22 00:45:41;;;;;;;0.20;0.20;;;;;;;13.99;80.68;99749.09;4994397;28;20026;-65
2023/04/22 00:48:07;;;;;;;0.20;0.20;;;;;;;14.31;80.24;99798.72;4994800;28;20076;-65
2023/04/22 00:50:33;;;;;;;0.20;0.20;;;;;;;14.21;80.59;99805.09;4994791;28;20112;-65
2023/04/22 00:53:00;;;;;;;0.20;0.20;;;;;;;14.09;81.55;99795.88;4994556;28;20037;-65
2023/04/22 00:55:26;;;;;;;0.20;0.20;;;;;;;14.09;81.88;99804.28;4994739;28;20034;-65
2023/04/22 00:57:57;;;;;;;0.20;0.20;;;;;;;14.06;81.36;99807.06;4995396;28;20395;-65
2023/04/22 01:00:26;;;;;;;0.20;0.20;;;;;;;14.10;81.96;99800.28;4995610;28;20030;-65
2023/04/22 01:02:53;;;;;;;0.20;0.20;;;;;;;14.14;81.81;99801.09;4994097;28;20030;-65
2023/04/22 01:05:19;;;;;;;0.20;0.20;;;;;;;14.22;81.91;99801.09;4994880;28;20034;-65
2023/04/22 01:07:47;;;;;;;0.20;0.20;;;;;;;14.26;81.20;99801.91;4994269;28;20030;-65
2023/04/22 01:10:17;;;;;;;0.20;0.20;;;;;;;14.29;80.73;99806.72;4993963;28;20113;-66
2023/04/22 01:12:42;;;;;;;0.20;0.20;;;;;;;14.20;80.42;99792.31;4993908;28;20026;-66
2023/04/22 01:15:08;;;;;;;0.20;0.20;;;;;;;14.14;80.16;99795.50;4978219;28;20042;-65
2023/04/22 01:17:34;;;;;;;0.20;0.20;;;;;;;14.13;80.61;99805.09;4994506;28;20019;-66
2023/04/22 01:20:04;;;;;;;0.20;0.20;;;;;;;14.11;80.52;99806.66;4993947;28;20441;-66
2023/04/22 01:22:35;;;;;;;0.20;0.20;;;;;;;14.12;80.22;99797.91;4994722;28;20097;-66
2023/04/22 01:25:02;;;;;;;0.20;0.20;;;;;;;14.05;80.03;99803.47;4994675;28;20027;-66
2023/04/22 01:27:27;;;;;;;0.20;0.20;;;;;;;14.07;80.06;99801.09;4993671;28;20030;-66
2023/04/22 01:29:54;;;;;;;0.20;0.20;;;;;;;14.04;80.17;99799.06;4993756;28;20097;-66
2023/04/22 01:32:22;;;;;;;0.20;0.20;;;;;;;14.01;80.13;99805.47;4993921;28;20034;-66
2023/04/22 01:34:50;;;;;;;0.20;0.20;;;;;;;13.94;80.59;99799.03;4993583;28;20030;-66
2023/04/22 01:37:18;;;;;;;0.20;0.20;;;;;;;13.86;79.78;99798.22;4989626;28;20037;-66
2023/04/22 01:39:46;;;;;;;0.20;0.20;;;;;;;13.80;80.51;99797.81;4993999;28;20068;-66
2023/04/22 01:42:17;;;;;;;0.20;0.20;;;;;;;13.78;80.96;99799.38;4993409;28;20026;-65
2023/04/22 01:44:42;;;;;;;0.20;0.20;;;;;;;13.71;80.98;99800.16;4994010;28;20488;-66
2023/04/22 01:47:10;;;;;;;0.30;0.30;;;;;;;13.75;80.86;99795.38;4993316;28;20166;-66
2023/04/22 01:49:38;;;;;;;0.20;0.20;;;;;;;13.75;80.89;99809.38;4992856;28;20026;-66
2023/04/22 01:52:03;;;;;;;0.20;0.20;;;;;;;13.78;80.31;99799.38;4993775;28;20476;-66
2023/04/22 01:54:31;;;;;;;0.20;0.20;;;;;;;13.83;79.76;99797.00;4993248;28;20038;-65
2023/04/22 01:57:00;;;;;;;0.20;0.20;;;;;;;13.84;79.72;99803.41;4993705;28;20033;-66
2023/04/22 01:59:26;;;;;;;0.20;0.20;;;;;;;13.81;79.60;99810.59;4994491;28;20037;-66
2023/04/22 02:01:51;;;;;;;0.20;0.20;;;;;;;13.80;79.39;99808.19;4993468;28;20034;-66
2023/04/22 02:04:17;;;;;;;0.20;0.20;;;;;;;13.74;79.33;99815.34;4993157;28;20504;-65
2023/04/22 02:06:42;;;;;;;0.20;0.20;;;;;;;13.70;79.97;99814.53;4993709;28;20026;-66
2023/04/22 02:09:10;;;;;;;0.20;0.20;;;;;;;13.63;80.60;99823.69;4993287;28;20093;-66
2023/04/22 02:11:40;;;;;;;0.20;0.20;;;;;;;13.72;79.87;99812.94;4997407;28;20035;-66
2023/04/22 02:14:06;;;;;;;0.20;0.20;;;;;;;13.72;79.24;99817.72;4995757;28;20037;-65
2023/04/22 02:16:31;;;;;;;0.20;0.20;;;;;;;13.70;79.42;99804.16;4993523;28;20035;-65
2023/04/22 02:18:59;;;;;;;0.30;0.30;;;;;;;13.74;79.34;99815.34;4993570;28;20026;-65
2023/04/22 02:21:28;;;;;;;0.30;0.30;;;;;;;13.61;79.55;99815.69;4993602;28;20484;-65
2023/04/22 02:23:53;;;;;;;0.20;0.20;;;;;;;13.47;79.86;99812.81;4993200;28;20522;-66
2023/04/22 02:26:22;;;;;;;0.20;0.20;;;;;;;13.27;80.87;99789.19;4992897;28;20042;-66
2023/04/22 02:28:52;;;;;;;0.20;0.20;;;;;;;13.50;80.70;99822.44;4992922;28;20046;-65
2023/04/22 02:31:18;;;;;;;0.20;0.20;;;;;;;13.47;80.62;99818.41;4992418;28;20046;-65
2023/04/22 02:33:43;;;;;;;0.20;0.20;;;;;;;13.47;80.40;99829.59;4993649;28;20085;-72
2023/04/22 02:36:10;;;;;;;0.20;0.20;;;;;;;13.41;80.96;99825.56;4993629;28;20042;-66
2023/04/22 02:38:35;;;;;;;0.20;0.20;;;;;;;13.33;81.50;99813.56;4993205;28;20053;-66
2023/04/22 02:41:01;;;;;;;0.20;0.20;;;;;;;13.23;81.73;99821.88;4993125;28;20117;-65
2023/04/22 02:43:26;;;;;;;0.20;0.20;;;;;;;13.23;82.63;99830.25;4992827;28;20388;-66
2023/04/22 02:45:54;;;;;;;0.20;0.20;;;;;;;13.30;82.80;99825.50;4993037;28;20030;-68
2023/04/22 02:48:20;;;;;;;0.20;0.20;;;;;;;13.37;82.13;99813.59;4992804;28;20031;-66
2023/04/22 02:50:47;;;;;;;0.20;0.20;;;;;;;13.22;81.78;99825.88;4992797;28;20038;-66
2023/04/22 02:53:13;;;;;;;0.20;0.20;;;;;;;13.20;82.48;99826.19;4994295;28;20479;-65
2023/04/22 02:55:40;;;;;;;0.20;0.20;;;;;;;13.32;81.75;99827.94;4993034;28;20045;-66
2023/04/22 02:58:07;;;;;;;0.20;0.20;;;;;;;13.34;81.76;99831.13;4993225;28;20030;-65
2023/04/22 03:00:33;;;;;;;0.20;0.20;;;;;;;13.39;80.76;99836.34;4992671;28;20034;-66
2023/04/22 03:02:58;;;;;;;0.20;0.20;;;;;;;13.36;81.33;99828.72;4995278;28;20034;-66
2023/04/22 03:05:24;;;;;;;0.20;0.20;;;;;;;13.33;80.84;99832.31;4996289;28;20117;-66
2023/04/22 03:07:53;;;;;;;0.20;0.20;;;;;;;13.36;80.32;99835.13;4996776;28;20117;-66
2023/04/22 03:10:19;;;;;;;0.20;0.20;;;;;;;13.35;80.91;99833.50;4996152;28;20121;-66
2023/04/22 03:12:44;;;;;;;0.20;0.20;;;;;;;13.27;81.22;99834.69;4996106;28;20069;-66
2023/04/22 03:15:10;;;;;;;0.20;0.20;;;;;;;13.23;80.87;99841.44;4996049;28;20038;-65
2023/04/22 03:17:39;;;;;;;0.20;0.20;;;;;;;13.25;81.45;99841.81;4995990;28;20032;-65
2023/04/22 03:20:05;;;;;;;0.20;0.20;;;;;;;13.16;80.55;99830.97;4996316;28;20126;-66
2023/04/22 03:22:35;;;;;;;0.20;0.20;;;;;;;13.19;79.79;99824.59;4996546;28;20023;-65
2023/04/22 03:25:01;;;;;;;0.20;0.20;;;;;;;13.18;78.58;99830.59;4996192;28;20042;-65
2023/04/22 03:27:32;;;;;;;0.20;0.20;;;;;;;13.22;78.23;99839.84;4995863;28;20022;-65
2023/04/22 03:29:58;;;;;;;0.20;0.20;;;;;;;13.19;78.34;99840.56;4995473;28;20050;-65
2023/04/22 03:32:23;;;;;;;0.20;0.20;;;;;;;13.27;78.22;99837.47;4995758;28;20034;-65
2023/04/22 03:34:48;;;;;;;0.20;0.20;;;;;;;13.28;77.78;99838.28;4995720;28;20045;-65
2023/04/22 03:37:17;;;;;;;0.20;0.20;;;;;;;13.22;77.54;99848.22;4996178;28;20034;-65
2023/04/22 03:39:45;;;;;;;0.20;0.20;;;;;;;13.15;78.25;99839.72;4995652;28;20137;-65
2023/04/22 03:42:14;;;;;;;0.20;0.20;;;;;;;13.18;77.73;99845.34;4995585;28;20026;-65
2023/04/22 03:44:42;;;;;;;0.20;0.20;;;;;;;13.27;77.10;99847.84;4995851;28;20451;-65
2023/04/22 03:47:08;;;;;;;0.20;0.20;;;;;;;13.33;75.69;99846.28;4995794;28;20117;-65
2023/04/22 03:49:33;;;;;;;0.20;0.20;;;;;;;13.25;76.13;99842.63;4995426;28;20499;-65
2023/04/22 03:52:02;;;;;;;0.20;0.20;;;;;;;13.27;75.71;99842.25;4996215;28;20034;-65
2023/04/22 03:54:28;;;;;;;0.20;0.20;;;;;;;13.27;75.51;99847.84;4995639;28;20482;-65
2023/04/22 03:56:53;;;;;;;0.20;0.20;;;;;;;13.21;74.89;99846.56;4995396;28;20026;-65
2023/04/22 03:59:19;;;;;;;0.20;0.20;;;;;;;13.21;75.10;99838.16;4996074;28;20054;-65
2023/04/22 04:01:50;;;;;;;0.20;0.20;;;;;;;13.33;74.62;99849.09;4995279;28;20053;-65
2023/04/22 04:04:22;;;;;;;0.20;0.20;;;;;;;13.21;74.58;99843.75;4995783;28;20035;-65
2023/04/22 04:06:48;;;;;;;0.20;0.20;;;;;;;13.11;75.28;99848.91;4995462;28;20026;-65
2023/04/22 04:09:16;;;;;;;0.20;0.20;;;;;;;13.11;74.97;99851.69;4995127;28;20033;-65
2023/04/22 04:11:41;;;;;;;0.20;0.20;;;;;;;13.17;75.41;99854.94;4995118;28;20113;-65
2023/04/22 04:14:08;;;;;;;0.30;0.30;;;;;;;13.06;74.80;99849.28;4994724;28;20194;-65
2023/04/22 04:16:36;;;;;;;0.20;0.20;;;;;;;13.15;74.95;99853.69;4994893;28;20061;-66
2023/04/22 04:19:02;;;;;;;0.20;0.20;;;;;;;13.18;74.62;99858.53;4995060;28;20092;-65
2023/04/22 04:21:28;;;;;;;0.20;0.20;;;;;;;13.15;74.73;99859.28;4995788;28;20108;-66
2023/04/22 04:23:53;;;;;;;0.22;0.22;;;;;;;13.09;74.58;99865.22;4995854;28;20477;-66
2023/04/22 04:26:22;;;;;;;0.20;0.20;;;;;;;13.09;74.78;99870.81;4995128;28;20528;-65
2023/04/22 04:28:51;;;;;;;0.30;0.30;;;;;;;13.10;74.88;99872.44;4994794;28;20519;-65
2023/04/22 04:31:16;;;;;;;0.30;0.30;;;;;;;13.01;75.17;99871.16;4994397;28;20046;-65
2023/04/22 04:33:46;;;;;;;0.20;0.20;;;;;;;13.11;75.11;99878.84;4994608;28;20592;-65
2023/04/22 04:36:14;;;;;;;0.30;0.30;;;;;;;13.18;74.47;99876.09;4994475;28;20034;-65
2023/04/22 04:38:40;;;;;;;0.20;0.20;;;;;;;13.55;73.66;99881.53;4998485;28;20019;-66
2023/04/22 04:41:08;;;;;;;0.20;0.20;;;;;;;14.12;71.37;99893.03;4998766;28;20129;-65
2023/04/22 04:43:36;;;;;;;0.20;0.20;;;;;;;14.64;67.97;99885.16;4994436;28;20474;-66
2023/04/22 04:46:05;;;;;;;0.20;0.20;;;;;;;15.25;66.21;99890.03;4994725;28;20030;-67
2023/04/22 04:48:34;;;;;;;0.20;0.20;;;;;;;15.74;64.44;99888.34;4994348;28;20150;-67
2023/04/22 04:51:00;;;;;;;0.20;0.20;;;;;;;16.28;61.71;99897.38;4994543;28;20477;-67
2023/04/22 04:53:25;;;;;;;0.20;0.20;;;;;;;16.72;58.71;99889.13;4994338;28;20033;-67
2023/04/22 04:55:53;;;;;;;0.20;0.20;;;;;;;17.13;56.90;99888.41;4995019;28;20121;-67
2023/04/22 04:58:19;;;;;;;0.20;0.20;;;;;;;17.47;54.85;99888.50;4994107;28;20023;-69
2023/04/22 05:00:47;;;;;;;0.20;0.20;;;;;;;17.88;53.87;99892.50;4994582;28;20037;-65
2023/04/22 05:03:12;;;;;;;0.20;0.20;;;;;;;18.36;52.92;99897.94;4994793;28;20061;-66
2023/04/22 05:05:38;;;;;;;0.20;0.20;;;;;;;18.82;51.46;99894.50;4993940;28;20528;-66
2023/04/22 05:08:04;;;;;;;0.20;0.20;;;;;;;19.16;50.02;99906.84;4994149;28;20045;-67
2023/04/22 05:10:32;;;;;;;0.20;0.20;;;;;;;19.48;47.93;99911.94;4993779;28;20481;-66
2023/04/22 05:12:58;;;;;;;0.20;0.20;;;;;;;19.66;46.06;99906.81;4994360;28;20385;-65
2023/04/22 05:15:23;;;;;;;0.20;0.20;;;;;;;20.18;48.43;99917.47;4994033;28;20042;-71
2023/04/22 05:17:52;;;;;;;0.20;0.20;;;;;;;20.17;52.97;99918.72;4994389;28;20065;-68
2023/04/22 05:20:17;;;;;;;0.20;0.20;;;;;;;20.26;52.57;99916.09;4993923;28;20037;-71
2023/04/22 05:22:45;;;;;;;0.20;0.20;;;;;;;20.40;52.78;99921.47;4993604;28;20389;-70
2023/04/22 05:25:13;;;;;;;0.20;0.20;;;;;;;20.72;51.84;99920.00;4992894;28;20066;-68
2023/04/22 05:27:39;;;;;;;0.20;0.20;;;;;;;21.14;50.83;99925.84;4993585;28;20041;-69
2023/04/22 05:30:08;;;;;;;0.20;0.20;;;;;;;21.26;49.36;99933.66;4993586;28;20050;-71
2023/04/22 05:32:36;;;;;;;0.20;0.20;;;;;;;21.32;49.50;99934.75;4993442;28;20034;-70
2023/04/22 05:35:05;;;;;;;0.20;0.20;;;;;;;21.78;48.38;99937.59;4993115;28;20084;-70
2023/04/22 05:37:31;;;;;;;0.20;0.20;;;;;;;21.98;47.25;99941.88;4993274;28;20027;-70
2023/04/22 05:39:58;;;;;;;0.20;0.20;;;;;;;22.14;47.03;99948.78;4993350;28;20049;-70
2023/04/22 05:42:24;;;;;;;0.20;0.20;;;;;;;23.10;43.25;99943.06;4993583;28;20022;-70
2023/04/22 05:44:50;;;;;;;0.20;0.20;;;;;;;23.38;43.21;99943.38;4993305;28;20057;-73
2023/04/22 05:47:20;;;;;;;0.20;0.20;;;;;;;23.37;43.32;99951.09;4993524;28;20022;-71
2023/04/22 05:49:48;;;;;;;0.20;0.20;;;;;;;23.39;43.25;99945.78;4993186;28;20065;-71
2023/04/22 05:52:17;;;;;;;0.20;0.20;;;;;;;23.39;41.96;99954.28;4993188;28;20026;-71
2023/04/22 05:54:46;;;;;;;0.20;0.20;;;;;;;24.04;39.97;99955.72;4993105;28;20085;-66
2023/04/22 05:57:11;;;;;;;0.20;0.20;;;;;;;24.42;39.06;99951.94;4993043;28;20023;-65
2023/04/22 05:59:40;;;;;;;0.20;0.20;;;;;;;24.88;37.38;99963.59;4993121;28;20037;-66
2023/04/22 06:02:05;;;;;;;0.20;0.20;;;;;;;24.35;38.30;99964.38;4992769;28;20054;-66
2023/04/22 06:04:33;;;;;;;0.17;0.17;;;;;;;24.90;36.87;99952.53;4993633;28;20081;-66
2023/04/22 06:07:01;;;;;;;0.20;0.20;;;;;;;25.30;36.21;99955.38;4993042;28;20030;-66
2023/04/22 06:09:26;;;;;;;0.20;0.20;;;;;;;25.48;36.07;99958.31;4992957;28;20030;-66
2023/04/22 06:11:52;;;;;;;0.20;0.20;;;;;;;25.79;34.39;99954.59;4993503;28;20040;-65
2023/04/22 06:14:17;;;;;;;0.20;0.20;;;;;;;25.04;35.95;99958.44;4993729;28;20465;-66
2023/04/22 06:16:43;;;;;;;0.20;0.20;;;;;;;25.70;35.61;99960.25;4992886;28;20480;-65
2023/04/22 06:19:09;;;;;;;0.20;0.20;;;;;;;25.23;34.43;99961.38;4992648;28;20045;-66
2023/04/22 06:21:36;;;;;;;0.20;0.20;;;;;;;24.49;36.53;99958.13;4993143;28;20038;-66
2023/04/22 06:24:04;;;;;;;0.20;0.20;;;;;;;24.59;36.64;99963.88;4992867;28;20065;-66
2023/04/22 06:26:31;;;;;;;0.20;0.20;;;;;;;24.92;36.12;99967.84;4993309;28;20474;-67
2023/04/22 06:29:01;;;;;;;0.20;0.20;;;;;;;24.79;35.93;99964.31;4993786;28;20492;-66
2023/04/22 06:31:27;;;;;;;0.20;0.20;;;;;;;24.46;36.96;99972.50;5012735;28;20554;-68
2023/04/22 06:33:54;;;;;;;0.20;0.20;;;;;;;24.63;35.58;99968.19;4995638;28;20026;-68
2023/04/22 06:36:20;;;;;;;0.20;0.20;;;;;;;24.25;37.19;99971.22;4997571;28;20030;-67
2023/04/22 06:38:45;;;;;;;0.20;0.20;;;;;;;23.93;36.66;99967.47;4999866;28;20037;-67
2023/04/22 06:41:12;;;;;;;0.20;0.20;;;;;;;23.65;37.98;99971.28;4999774;28;20026;-65
2023/04/22 06:43:38;;;;;;;0.20;0.20;;;;;;;23.80;38.42;99969.56;4999718;28;20177;-65
2023/04/22 06:46:04;;;;;;;0.15;0.15;;;;;;;24.28;37.75;99978.81;4999903;28;20116;-65
2023/04/22 06:48:34;;;;;;;0.10;0.10;;;;;;;24.36;36.50;99977.31;4999642;28;20129;-65
2023/04/22 06:51:00;;;;;;;0.15;0.15;;;;;;;24.43;36.54;99979.91;4999915;28;20420;-65
2023/04/22 06:53:28;;;;;;;0.10;0.10;;;;;;;24.02;37.47;99984.63;4999552;28;20091;-65
2023/04/22 06:55:59;;;;;;;0.20;0.20;;;;;;;24.45;36.01;99985.94;4999530;28;20033;-65
2023/04/22 06:58:27;;;;;;;0.20;0.20;;;;;;;24.08;36.85;99989.72;5000001;28;20037;-66
2023/04/22 07:00:53;;;;;;;0.20;0.20;;;;;;;23.90;37.46;99985.44;4999493;28;20117;-65
2023/04/22 07:03:23;;;;;;;0.20;0.20;;;;;;;24.08;36.11;99989.72;5000023;28;20076;-65
2023/04/22 07:05:49;;;;;;;0.20;0.20;;;;;;;23.91;35.69;99992.69;4999621;28;20030;-64
2023/04/22 07:08:17;;;;;;;0.20;0.20;;;;;;;23.79;37.23;99996.38;4999219;28;20446;-65
2023/04/22 07:10:50;;;;;;;0.20;0.20;;;;;;;24.25;35.75;99994.75;4999228;28;20030;-65
2023/04/22 07:13:15;;;;;;;;;;;;;;;25.03;34.90;99985.31;5000108;28;20030;-65
2023/04/22 07:15:41;;;;;;;0.20;0.20;;;;;;;24.99;35.08;99984.66;4999594;28;20371;-64
2023/04/22 07:18:06;;;;;;;0.15;0.15;;;;;;;24.72;36.10;99993.84;4999600;28;20372;-65
2023/04/22 07:20:32;;;;;;;0.10;0.10;;;;;;;25.13;34.76;99991.88;4999286;28;20469;-65
2023/04/22 07:23:00;;;;;;;0.20;0.20;;;;;;;25.08;35.03;99986.78;4998988;28;20034;-64
2023/04/22 07:25:25;;;;;;;0.10;0.10;;;;;;;26.06;34.29;99991.66;4998870;28;20030;-64
2023/04/22 07:27:51;;;;;;;0.20;0.20;;;;;;;26.54;32.70;99985.50;4998886;28;20022;-65
2023/04/22 07:30:16;;;;;;;0.20;0.20;;;;;;;25.88;33.81;99983.09;4998505;28;20112;-64
2023/04/22 07:32:42;;;;;;;0.20;0.20;;;;;;;25.95;32.96;99999.09;4999616;28;20030;-65
2023/04/22 07:35:08;;;;;;;0.20;0.20;;;;;;;25.72;34.31;99986.97;4998730;28;20030;-65
2023/04/22 07:37:33;;;;;;;0.20;0.20;;;;;;;25.98;33.32;99987.53;4998520;28;20022;-65
2023/04/22 07:40:01;;;;;;;0.20;0.20;;;;;;;25.75;33.49;99988.16;4998724;28;20125;-65
2023/04/22 07:42:27;;;;;;;0.20;0.20;;;;;;;25.44;33.49;99991.81;4998574;28;20125;-64
2023/04/22 07:44:55;;;;;;;0.20;0.20;;;;;;;25.14;33.77;99989.81;4998352;28;20041;-65
2023/04/22 07:47:22;;;;;;;0.20;0.20;;;;;;;25.15;34.21;99988.56;4998338;28;20022;-65
2023/04/22 07:49:48;;;;;;;0.20;0.20;;;;;;;25.84;33.48;99996.72;4998518;28;20022;-66
2023/04/22 07:52:14;;;;;;;0.20;0.20;;;;;;;26.37;33.04;99987.88;4998642;28;20036;-65
2023/04/22 07:54:41;;;;;;;0.10;0.10;;;;;;;27.30;31.49;99994.97;4998412;28;20061;-65
2023/04/22 07:57:12;;;;;;;0.20;0.20;;;;;;;27.18;31.36;99998.84;4998352;28;20033;-65
2023/04/22 07:59:38;;;;;;;0.10;0.10;;;;;;;27.77;30.11;99999.19;4998376;28;20030;-66
2023/04/22 08:02:06;;;;;;;0.10;0.10;;;;;;;26.89;30.22;100005.84;5015933;28;20036;-65
2023/04/22 08:04:31;;;;;;;0.20;0.20;;;;;;;26.48;30.95;99996.75;4999018;28;20456;-65
2023/04/22 08:06:57;;;;;;;0.10;0.10;;;;;;;26.38;32.65;100001.66;4998448;28;20034;-69
2023/04/22 08:09:22;;;;;;;0.15;0.15;;;;;;;25.50;33.39;100003.41;4999241;28;20032;-65
2023/04/22 08:11:51;;;;;;;0.20;0.20;;;;;;;26.61;30.98;99999.41;4998208;28;20477;-64
2023/04/22 08:14:18;;;;;;;0.20;0.20;;;;;;;26.96;31.36;99994.13;4998496;28;20358;-65
2023/04/22 08:16:44;;;;;;;0.20;0.20;;;;;;;26.53;30.68;99996.13;4998182;28;20026;-65
2023/04/22 08:19:12;;;;;;;0.20;0.20;;;;;;;25.70;31.70;100002.97;4997883;28;20044;-64
2023/04/22 08:21:41;;;;;;;0.20;0.20;;;;;;;26.38;31.06;99998.00;4997603;28;20119;-64
2023/04/22 08:24:09;;;;;;;0.20;0.20;;;;;;;26.92;29.97;99999.19;5015477;28;20029;-64
2023/04/22 08:26:36;;;;;;;0.20;0.20;;;;;;;27.77;29.53;99999.19;4998350;28;20385;-65
2023/04/22 08:29:05;;;;;;;0.10;0.10;;;;;;;28.36;28.64;99999.41;4997854;28;20122;-64
2023/04/22 08:31:33;;;;;;;0.20;0.20;;;;;;;28.08;28.81;100005.31;4993890;28;20054;-65
2023/04/22 08:33:59;;;;;;;0.10;0.10;;;;;;;27.42;28.55;99996.81;4996077;28;20026;-65
2023/04/22 08:36:26;;;;;;;0.20;0.20;;;;;;;27.27;28.07;99998.78;4994286;28;20085;-64
2023/04/22 08:38:54;;;;;;;0.20;0.20;;;;;;;26.76;28.41;100005.28;4994385;28;20050;-64
2023/04/22 08:41:21;;;;;;;0.20;0.20;;;;;;;26.09;30.25;100002.09;4994334;28;20042;-64
2023/04/22 08:43:48;;;;;;;0.10;0.10;;;;;;;27.24;28.88;99997.69;4994605;28;20047;-65
2023/04/22 08:46:18;;;;;;;0.10;0.10;;;;;;;26.96;29.34;99994.13;4995501;28;20092;-65
2023/04/22 08:48:46;;;;;;;0.20;0.20;;;;;;;26.52;29.28;99999.44;4994358;28;20030;-65
2023/04/22 08:51:15;;;;;;;0.10;0.10;;;;;;;25.90;29.79;99991.97;4994582;28;20038;-65
2023/04/22 08:53:42;;;;;;;0.20;0.20;;;;;;;26.20;29.23;99995.13;4995091;28;20030;-64
2023/04/22 08:56:09;;;;;;;0.20;0.20;;;;;;;27.16;29.28;99990.72;4994066;28;20030;-64
2023/04/22 08:58:35;;;;;;;0.10;0.10;;;;;;;27.78;29.06;99997.91;4993691;28;20503;-64
2023/04/22 09:01:02;;;;;;;0.20;0.20;;;;;;;28.57;27.54;100009.69;4993121;28;20066;-64
2023/04/22 09:03:30;;;;;;;0.20;0.20;;;;;;;27.54;28.37;99998.66;4994437;28;20486;-65
2023/04/22 09:06:02;;;;;;;0.20;0.20;;;;;;;27.77;28.52;100005.69;4993893;28;20034;-64
2023/04/22 09:08:31;;;;;;;0.20;0.20;;;;;;;26.99;29.70;100001.69;4993581;28;20076;-64
2023/04/22 09:10:57;;;;;;;0.20;0.20;;;;;;;27.58;29.39;99998.47;4994214;28;20037;-64
2023/04/22 09:13:27;;;;;;;0.20;0.20;;;;;;;27.10;29.24;99996.31;4993873;28;20430;-65
2023/04/22 09:15:55;;;;;;;0.20;0.20;;;;;;;26.72;30.61;99993.22;4993987;28;20169;-64
2023/04/22 09:18:23;;;;;;;0.20;0.20;;;;;;;27.22;29.41;99999.44;4993539;28;20061;-65
2023/04/22 09:20:54;;;;;;;0.20;0.20;;;;;;;27.86;29.03;99993.41;4994320;28;20057;-65
2023/04/22 09:23:22;;;;;;;0.20;0.20;;;;;;;28.55;28.80;99995.09;4993687;28;20030;-64
2023/04/22 09:25:48;;;;;;;0.20;0.20;;;;;;;28.94;28.27;99992.16;4994207;28;20436;-64
2023/04/22 09:28:22;;;;;;;0.20;0.20;;;;;;;29.07;27.24;99994.72;4993537;28;20311;-65
2023/04/22 09:30:48;;;;;;;0.20;0.20;;;;;;;27.74;27.78;99983.00;4993151;28;20076;-65
2023/04/22 09:33:16;;;;;;;0.20;0.20;;;;;;;28.84;27.68;99987.78;4993344;28;20446;-65
2023/04/22 09:35:42;;;;;;;0.20;0.20;;;;;;;29.58;27.16;99982.78;4993308;28;20101;-65
2023/04/22 09:38:10;;;;;;;0.20;0.20;;;;;;;28.95;26.42;99988.00;4993467;28;20540;-65
2023/04/22 09:40:40;;;;;;;0.10;0.10;;;;;;;29.13;26.49;99982.06;4993311;28;20492;-66
2023/04/22 09:43:09;;;;;;;0.20;0.20;;;;;;;30.13;25.75;99979.09;4993710;28;20376;-65
2023/04/22 09:45:39;;;;;;;0.20;0.20;;;;;;;30.15;25.46;99978.56;4993261;28;20042;-65
2023/04/22 09:48:08;;;;;;;0.20;0.20;;;;;;;29.56;26.05;99976.75;4993154;28;20038;-63
2023/04/22 09:50:38;;;;;;;0.10;0.10;;;;;;;29.35;26.37;99977.97;4993967;28;20465;-65
2023/04/22 09:53:12;;;;;;;0.10;0.10;;;;;;;29.61;26.52;99976.03;4993064;28;20030;-65
2023/04/22 09:55:46;;;;;;;0.17;0.17;;;;;;;28.82;28.21;99976.84;4993238;28;20105;-66
2023/04/22 09:58:16;;;;;;;0.20;0.20;;;;;;;29.41;27.58;99965.31;4994309;28;20080;-65
2023/04/22 10:00:48;;;;;;;0.10;0.10;;;;;;;29.87;27.48;99963.88;4993615;28;20030;-66
2023/04/22 10:03:14;;;;;;;0.20;0.20;;;;;;;30.35;26.23;99960.53;4992943;28;20025;-65
2023/04/22 10:05:40;;;;;;;0.10;0.10;;;;;;;30.62;26.07;99962.91;4992908;28;20042;-66
2023/04/22 10:08:09;;;;;;;0.20;0.20;;;;;;;30.77;25.88;99957.88;4992860;28;20019;-65
2023/04/22 10:10:38;;;;;;;0.10;0.10;;;;;;;30.88;25.71;99965.00;4993799;28;20030;-65
2023/04/22 10:13:05;;;;;;;0.20;0.20;;;;;;;30.17;26.25;99953.84;4993305;28;20022;-66
2023/04/22 10:15:35;;;;;;;0.20;0.20;;;;;;;28.55;27.69;99955.03;4993271;28;20030;-66
2023/04/22 10:18:05;;;;;;;0.20;0.20;;;;;;;28.93;28.10;99947.63;4993769;28;20027;-66
2023/04/22 10:20:35;;;;;;;0.15;0.15;;;;;;;29.29;27.50;99948.44;4993792;28;20069;-65
2023/04/22 10:23:04;;;;;;;0.20;0.20;;;;;;;29.51;26.80;99937.31;4993010;28;20473;-65
2023/04/22 10:25:29;;;;;;;0.17;0.17;;;;;;;28.55;27.82;99937.88;4994289;28;20133;-67
2023/04/22 10:28:07;;;;;;;0.10;0.10;;;;;;;29.82;27.31;99933.03;4992692;28;20113;-72
2023/04/22 10:30:37;;;;;;;0.10;0.10;;;;;;;29.41;27.13;99941.59;4992672;28;20054;-72
2023/04/22 10:33:26;;;;;;;0.20;0.20;;;;;;;28.74;27.71;99944.16;4992822;28;20133;-72
2023/04/22 10:36:10;;;;;;;0.10;0.10;;;;;;;28.17;28.41;99942.31;4993506;28;20058;-72
2023/04/22 10:39:01;;;;;;;0.20;0.20;;;;;;;27.66;29.22;99934.75;4992923;28;20049;-72
2023/04/22 10:41:34;;;;;;;0.10;0.10;;;;;;;27.75;28.78;99928.22;4991964;28;20050;-66
2023/04/22 10:44:04;;;;;;;0.10;0.10;;;;;;;26.75;30.03;99901.75;4992702;28;20485;-65
2023/04/22 10:46:33;;;;;;;0.10;0.10;;;;;;;26.00;31.90;99898.72;4993754;28;20038;-65
2023/04/22 10:49:05;;;;;;;0.13;0.13;;;;;;;26.00;31.36;99925.16;4992349;28;20039;-65
2023/04/22 10:51:46;;;;;;;0.20;0.20;;;;;;;26.87;30.76;99917.06;4992627;28;20035;-65
2023/04/22 10:54:26;;;;;;;0.20;0.20;;;;;;;26.96;31.03;99919.91;4992562;28;20037;-65
2023/04/22 10:57:06;;;;;;;0.20;0.20;;;;;;;27.27;30.48;99921.66;4992373;28;20030;-66
2023/04/22 10:59:41;;;;;;;0.10;0.10;;;;;;;26.45;31.33;99919.91;4992820;28;20049;-65
2023/04/22 11:02:07;;;;;;;0.20;0.20;;;;;;;26.88;31.15;99919.44;4992504;28;20458;-65
2023/04/22 11:04:34;;;;;;;0.10;0.10;;;;;;;27.29;29.88;99921.97;4993047;28;20031;-71
2023/04/22 11:07:19;;;;;;;0.10;0.10;;;;;;;26.65;30.93;99923.00;4992501;28;20208;-71
2023/04/22 11:09:48;;;;;;;0.10;0.10;;;;;;;26.43;31.66;99920.38;4992420;28;20038;-75
2023/04/22 11:12:38;;;;;;;0.10;0.10;;;;;;;26.03;31.83;99921.34;4992747;28;20026;-71
2023/04/22 11:15:07;;;;;;;0.15;0.15;;;;;;;25.26;33.74;99909.22;4992889;28;20023;-71
2023/04/22 11:17:37;;;;;;;0.20;0.20;;;;;;;25.76;33.18;99921.34;4993948;28;20041;-71
2023/04/22 11:20:05;;;;;;;0.10;0.10;;;;;;;25.73;32.67;99923.06;4992366;28;20026;-71
2023/04/22 11:22:35;;;;;;;0.10;0.10;;;;;;;25.88;33.45;99911.03;4992699;28;20027;-71
2023/04/22 11:25:01;;;;;;;0.20;0.20;;;;;;;25.54;34.26;99910.84;4995724;28;20030;-70
2023/04/22 11:27:29;;;;;;;0.10;0.10;;;;;;;25.86;33.87;99909.47;4995800;28;20038;-71
2023/04/22 11:30:06;;;;;;;0.10;0.10;;;;;;;25.39;33.61;99901.31;4995888;28;20129;-71
2023/04/22 11:32:33;;;;;;;0.10;0.10;;;;;;;25.85;33.23;99899.34;4995257;28;20085;-71
2023/04/22 11:35:05;;;;;;;0.20;0.20;;;;;;;26.62;31.96;99901.94;4995920;28;20030;-71
2023/04/22 11:37:43;;;;;;;0.20;0.20;;;;;;;27.09;31.47;99909.06;4996582;28;20033;-71